sensor_id;sensor_type;location;lat;lon;timestamp;P1;durP1;ratioP1;P2;durP2;ratioP2
6999;SDS011;3540;53.242;10.408;2023-04-24T00:00:08;4.33;;;3.70;;
6999;SDS011;3540;53.242;10.408;2023-04-24T00:02:34;3.90;;;3.57;;
6999;SDS011;3540;53.242;10.408;2023-04-24T00:05:04;4.30;;;3.90;;
6999;SDS011;3540;53.242;10.408;2023-04-24T00:07:30;5.43;;;3.60;;
6999;SDS011;3540;53.242;10.408;2023-04-24T00:09:56;3.93;;;3.53;;
6999;SDS011;3540;53.242;10.408;2023-04-24T00:12:21;5.63;;;3.40;;
6999;SDS011;3540;53.242;10.408;2023-04-24T00:14:47;5.87;;;3.77;;
6999;SDS011;3540;53.242;10.408;2023-04-24T00:17:13;7.30;;;4.03;;
6999;SDS011;3540;53.242;10.408;2023-04-24T00:19:38;4.57;;;3.83;;
6999;SDS011;3540;53.242;10.408;2023-04-24T00:22:04;5.50;;;3.53;;
6999;SDS011;3540;53.242;10.408;2023-04-24T00:24:30;4.73;;;3.67;;
6999;SDS011;3540;53.242;10.408;2023-04-24T00:26:56;4.50;;;3.63;;
6999;SDS011;3540;53.242;10.408;2023-04-24T00:29:21;4.13;;;3.73;;
6999;SDS011;3540;53.242;10.408;2023-04-24T00:31:47;4.20;;;3.63;;
6999;SDS011;3540;53.242;10.408;2023-04-24T00:34:12;4.43;;;3.30;;
6999;SDS011;3540;53.242;10.408;2023-04-24T00:36:38;6.27;;;3.73;;
6999;SDS011;3540;53.242;10.408;2023-04-24T00:39:05;3.87;;;3.37;;
6999;SDS011;3540;53.242;10.408;2023-04-24T00:41:33;7.93;;;3.87;;
6999;SDS011;3540;53.242;10.408;2023-04-24T00:43:59;4.87;;;3.50;;
6999;SDS011;3540;53.242;10.408;2023-04-24T00:46:25;5.40;;;3.63;;
6999;SDS011;3540;53.242;10.408;2023-04-24T00:48:50;5.33;;;3.93;;
6999;SDS011;3540;53.242;10.408;2023-04-24T00:51:17;5.37;;;3.60;;
6999;SDS011;3540;53.242;10.408;2023-04-24T00:53:43;6.53;;;3.57;;
6999;SDS011;3540;53.242;10.408;2023-04-24T00:56:08;4.00;;;3.60;;
6999;SDS011;3540;53.242;10.408;2023-04-24T00:58:35;5.10;;;3.47;;
6999;SDS011;3540;53.242;10.408;2023-04-24T01:01:01;7.93;;;3.53;;
6999;SDS011;3540;53.242;10.408;2023-04-24T01:03:28;5.37;;;3.60;;
6999;SDS011;3540;53.242;10.408;2023-04-24T01:05:56;3.93;;;3.27;;
6999;SDS011;3540;53.242;10.408;2023-04-24T01:08:23;3.43;;;3.13;;
6999;SDS011;3540;53.242;10.408;2023-04-24T01:10:50;6.07;;;3.70;;
6999;SDS011;3540;53.242;10.408;2023-04-24T01:13:18;3.83;;;3.43;;
6999;SDS011;3540;53.242;10.408;2023-04-24T01:15:44;3.90;;;3.20;;
6999;SDS011;3540;53.242;10.408;2023-04-24T01:18:10;5.53;;;3.33;;
6999;SDS011;3540;53.242;10.408;2023-04-24T01:20:36;4.77;;;3.37;;
6999;SDS011;3540;53.242;10.408;2023-04-24T01:23:05;3.90;;;3.20;;
6999;SDS011;3540;53.242;10.408;2023-04-24T01:25:31;3.97;;;3.13;;
6999;SDS011;3540;53.242;10.408;2023-04-24T01:27:57;5.23;;;3.27;;
6999;SDS011;3540;53.242;10.408;2023-04-24T01:30:24;4.60;;;3.27;;
6999;SDS011;3540;53.242;10.408;2023-04-24T01:32:50;4.90;;;3.30;;
6999;SDS011;3540;53.242;10.408;2023-04-24T01:35:16;3.33;;;3.00;;
6999;SDS011;3540;53.242;10.408;2023-04-24T01:37:42;3.23;;;2.93;;
6999;SDS011;3540;53.242;10.408;2023-04-24T01:40:08;4.23;;;3.27;;
6999;SDS011;3540;53.242;10.408;2023-04-24T01:42:35;3.90;;;2.90;;
6999;SDS011;3540;53.242;10.408;2023-04-24T01:45:02;3.37;;;2.87;;
6999;SDS011;3540;53.242;10.408;2023-04-24T01:47:29;4.03;;;2.93;;
6999;SDS011;3540;53.242;10.408;2023-04-24T01:49:55;6.80;;;3.13;;
6999;SDS011;3540;53.242;10.408;2023-04-24T01:52:21;4.93;;;2.77;;
6999;SDS011;3540;53.242;10.408;2023-04-24T01:54:47;3.20;;;2.90;;
6999;SDS011;3540;53.242;10.408;2023-04-24T01:57:13;2.93;;;2.57;;
6999;SDS011;3540;53.242;10.408;2023-04-24T01:59:39;6.90;;;2.53;;
6999;SDS011;3540;53.242;10.408;2023-04-24T02:02:05;3.83;;;2.30;;
6999;SDS011;3540;53.242;10.408;2023-04-24T02:04:31;2.20;;;2.00;;
6999;SDS011;3540;53.242;10.408;2023-04-24T02:06:56;3.10;;;2.20;;
6999;SDS011;3540;53.242;10.408;2023-04-24T02:09:22;1.83;;;1.73;;
6999;SDS011;3540;53.242;10.408;2023-04-24T02:11:48;1.83;;;1.73;;
6999;SDS011;3540;53.242;10.408;2023-04-24T02:14:13;2.30;;;1.70;;
6999;SDS011;3540;53.242;10.408;2023-04-24T02:16:39;1.70;;;1.60;;
6999;SDS011;3540;53.242;10.408;2023-04-24T02:19:05;4.83;;;1.70;;
6999;SDS011;3540;53.242;10.408;2023-04-24T02:21:30;2.03;;;1.80;;
6999;SDS011;3540;53.242;10.408;2023-04-24T02:23:56;2.07;;;1.70;;
6999;SDS011;3540;53.242;10.408;2023-04-24T02:26:23;1.77;;;1.67;;
6999;SDS011;3540;53.242;10.408;2023-04-24T02:28:48;1.73;;;1.60;;
6999;SDS011;3540;53.242;10.408;2023-04-24T02:31:14;1.83;;;1.73;;
6999;SDS011;3540;53.242;10.408;2023-04-24T02:33:40;1.90;;;1.50;;
6999;SDS011;3540;53.242;10.408;2023-04-24T02:36:06;3.00;;;1.80;;
6999;SDS011;3540;53.242;10.408;2023-04-24T02:38:31;1.83;;;1.63;;
6999;SDS011;3540;53.242;10.408;2023-04-24T02:40:57;1.80;;;1.60;;
6999;SDS011;3540;53.242;10.408;2023-04-24T02:43:23;3.17;;;1.70;;
6999;SDS011;3540;53.242;10.408;2023-04-24T02:45:48;2.83;;;1.87;;
6999;SDS011;3540;53.242;10.408;2023-04-24T02:48:14;2.07;;;1.70;;
6999;SDS011;3540;53.242;10.408;2023-04-24T02:50:40;2.43;;;1.50;;
6999;SDS011;3540;53.242;10.408;2023-04-24T02:53:06;1.47;;;1.37;;
6999;SDS011;3540;53.242;10.408;2023-04-24T02:55:31;4.40;;;1.50;;
6999;SDS011;3540;53.242;10.408;2023-04-24T02:57:57;2.13;;;1.97;;
6999;SDS011;3540;53.242;10.408;2023-04-24T03:00:22;2.83;;;1.77;;
6999;SDS011;3540;53.242;10.408;2023-04-24T03:02:48;1.93;;;1.50;;
6999;SDS011;3540;53.242;10.408;2023-04-24T03:05:14;1.70;;;1.60;;
6999;SDS011;3540;53.242;10.408;2023-04-24T03:07:40;1.77;;;1.50;;
6999;SDS011;3540;53.242;10.408;2023-04-24T03:10:06;1.93;;;1.60;;
6999;SDS011;3540;53.242;10.408;2023-04-24T03:12:32;1.57;;;1.47;;
6999;SDS011;3540;53.242;10.408;2023-04-24T03:14:58;1.80;;;1.50;;
6999;SDS011;3540;53.242;10.408;2023-04-24T03:17:23;1.70;;;1.40;;
6999;SDS011;3540;53.242;10.408;2023-04-24T03:19:49;1.70;;;1.47;;
6999;SDS011;3540;53.242;10.408;2023-04-24T03:22:15;1.77;;;1.63;;
6999;SDS011;3540;53.242;10.408;2023-04-24T03:24:40;3.47;;;1.47;;
6999;SDS011;3540;53.242;10.408;2023-04-24T03:27:06;1.60;;;1.50;;
6999;SDS011;3540;53.242;10.408;2023-04-24T03:29:31;1.30;;;1.20;;
6999;SDS011;3540;53.242;10.408;2023-04-24T03:31:57;2.50;;;1.33;;
6999;SDS011;3540;53.242;10.408;2023-04-24T03:34:23;2.40;;;1.10;;
6999;SDS011;3540;53.242;10.408;2023-04-24T03:36:48;1.50;;;1.30;;
6999;SDS011;3540;53.242;10.408;2023-04-24T03:39:14;1.30;;;1.20;;
6999;SDS011;3540;53.242;10.408;2023-04-24T03:41:40;2.77;;;1.40;;
6999;SDS011;3540;53.242;10.408;2023-04-24T03:44:05;1.53;;;1.43;;
6999;SDS011;3540;53.242;10.408;2023-04-24T03:46:31;1.40;;;1.30;;
6999;SDS011;3540;53.242;10.408;2023-04-24T03:48:56;1.70;;;1.20;;
6999;SDS011;3540;53.242;10.408;2023-04-24T03:51:22;2.10;;;1.20;;
6999;SDS011;3540;53.242;10.408;2023-04-24T03:53:48;1.63;;;1.30;;
6999;SDS011;3540;53.242;10.408;2023-04-24T03:56:14;2.37;;;1.20;;
6999;SDS011;3540;53.242;10.408;2023-04-24T03:58:40;1.80;;;1.30;;
6999;SDS011;3540;53.242;10.408;2023-04-24T04:01:07;1.53;;;1.13;;
6999;SDS011;3540;53.242;10.408;2023-04-24T04:03:32;2.33;;;1.20;;
6999;SDS011;3540;53.242;10.408;2023-04-24T04:05:58;1.20;;;1.10;;
6999;SDS011;3540;53.242;10.408;2023-04-24T04:08:24;1.17;;;1.07;;
6999;SDS011;3540;53.242;10.408;2023-04-24T04:10:50;2.07;;;1.40;;
6999;SDS011;3540;53.242;10.408;2023-04-24T04:13:15;1.57;;;1.23;;
6999;SDS011;3540;53.242;10.408;2023-04-24T04:15:41;7.17;;;1.50;;
6999;SDS011;3540;53.242;10.408;2023-04-24T04:18:06;1.33;;;1.20;;
6999;SDS011;3540;53.242;10.408;2023-04-24T04:20:33;1.47;;;1.20;;
6999;SDS011;3540;53.242;10.408;2023-04-24T04:22:59;1.40;;;1.30;;
6999;SDS011;3540;53.242;10.408;2023-04-24T04:25:24;2.47;;;1.70;;
6999;SDS011;3540;53.242;10.408;2023-04-24T04:27:50;1.40;;;1.30;;
6999;SDS011;3540;53.242;10.408;2023-04-24T04:30:17;4.23;;;1.40;;
6999;SDS011;3540;53.242;10.408;2023-04-24T04:32:43;2.43;;;1.20;;
6999;SDS011;3540;53.242;10.408;2023-04-24T04:35:09;2.83;;;1.40;;
6999;SDS011;3540;53.242;10.408;2023-04-24T04:37:35;1.20;;;1.10;;
6999;SDS011;3540;53.242;10.408;2023-04-24T04:40:01;1.17;;;1.10;;
6999;SDS011;3540;53.242;10.408;2023-04-24T04:42:36;1.10;;;1.10;;
6999;SDS011;3540;53.242;10.408;2023-04-24T04:45:05;1.70;;;1.20;;
6999;SDS011;3540;53.242;10.408;2023-04-24T04:47:34;1.90;;;1.20;;
6999;SDS011;3540;53.242;10.408;2023-04-24T04:50:04;1.40;;;1.30;;
6999;SDS011;3540;53.242;10.408;2023-04-24T04:52:30;1.00;;;1.00;;
6999;SDS011;3540;53.242;10.408;2023-04-24T04:54:56;1.43;;;1.20;;
6999;SDS011;3540;53.242;10.408;2023-04-24T04:57:22;1.40;;;1.30;;
6999;SDS011;3540;53.242;10.408;2023-04-24T04:59:47;1.30;;;1.20;;
6999;SDS011;3540;53.242;10.408;2023-04-24T05:02:13;6.13;;;1.40;;
6999;SDS011;3540;53.242;10.408;2023-04-24T05:04:39;3.17;;;1.70;;
6999;SDS011;3540;53.242;10.408;2023-04-24T05:07:05;1.40;;;1.30;;
6999;SDS011;3540;53.242;10.408;2023-04-24T05:09:31;1.50;;;1.40;;
6999;SDS011;3540;53.242;10.408;2023-04-24T05:11:56;6.20;;;1.20;;
6999;SDS011;3540;53.242;10.408;2023-04-24T05:14:22;1.23;;;1.00;;
6999;SDS011;3540;53.242;10.408;2023-04-24T05:16:48;3.00;;;1.40;;
6999;SDS011;3540;53.242;10.408;2023-04-24T05:19:13;2.37;;;1.70;;
6999;SDS011;3540;53.242;10.408;2023-04-24T05:21:40;2.47;;;2.13;;
6999;SDS011;3540;53.242;10.408;2023-04-24T05:24:06;2.87;;;1.60;;
6999;SDS011;3540;53.242;10.408;2023-04-24T05:26:31;1.83;;;1.27;;
6999;SDS011;3540;53.242;10.408;2023-04-24T05:28:57;1.30;;;1.20;;
6999;SDS011;3540;53.242;10.408;2023-04-24T05:31:23;2.30;;;1.30;;
6999;SDS011;3540;53.242;10.408;2023-04-24T05:33:48;1.03;;;1.03;;
6999;SDS011;3540;53.242;10.408;2023-04-24T05:36:14;1.30;;;1.20;;
6999;SDS011;3540;53.242;10.408;2023-04-24T05:38:40;2.97;;;1.37;;
6999;SDS011;3540;53.242;10.408;2023-04-24T05:41:06;2.47;;;1.40;;
6999;SDS011;3540;53.242;10.408;2023-04-24T05:43:31;2.00;;;1.20;;
6999;SDS011;3540;53.242;10.408;2023-04-24T05:45:57;1.57;;;1.23;;
6999;SDS011;3540;53.242;10.408;2023-04-24T05:48:22;1.33;;;1.23;;
6999;SDS011;3540;53.242;10.408;2023-04-24T05:50:48;1.30;;;1.20;;
6999;SDS011;3540;53.242;10.408;2023-04-24T05:53:14;2.60;;;1.50;;
6999;SDS011;3540;53.242;10.408;2023-04-24T05:55:40;2.33;;;1.50;;
6999;SDS011;3540;53.242;10.408;2023-04-24T05:58:06;2.10;;;1.50;;
6999;SDS011;3540;53.242;10.408;2023-04-24T06:00:31;2.80;;;1.50;;
6999;SDS011;3540;53.242;10.408;2023-04-24T06:02:58;1.70;;;1.37;;
6999;SDS011;3540;53.242;10.408;2023-04-24T06:05:25;1.47;;;1.30;;
6999;SDS011;3540;53.242;10.408;2023-04-24T06:07:50;1.20;;;1.10;;
6999;SDS011;3540;53.242;10.408;2023-04-24T06:10:16;1.40;;;1.30;;
6999;SDS011;3540;53.242;10.408;2023-04-24T06:12:42;1.60;;;1.30;;
6999;SDS011;3540;53.242;10.408;2023-04-24T06:15:08;1.30;;;1.20;;
6999;SDS011;3540;53.242;10.408;2023-04-24T06:17:34;1.30;;;1.20;;
6999;SDS011;3540;53.242;10.408;2023-04-24T06:19:59;2.30;;;1.40;;
6999;SDS011;3540;53.242;10.408;2023-04-24T06:22:25;2.80;;;1.30;;
6999;SDS011;3540;53.242;10.408;2023-04-24T06:24:50;3.63;;;1.50;;
6999;SDS011;3540;53.242;10.408;2023-04-24T06:27:16;1.60;;;1.50;;
6999;SDS011;3540;53.242;10.408;2023-04-24T06:29:42;1.43;;;1.20;;
6999;SDS011;3540;53.242;10.408;2023-04-24T06:32:07;4.13;;;1.40;;
6999;SDS011;3540;53.242;10.408;2023-04-24T06:34:33;2.73;;;1.40;;
6999;SDS011;3540;53.242;10.408;2023-04-24T06:37:00;3.33;;;1.20;;
6999;SDS011;3540;53.242;10.408;2023-04-24T06:39:27;1.87;;;1.00;;
6999;SDS011;3540;53.242;10.408;2023-04-24T06:41:52;1.30;;;1.20;;
6999;SDS011;3540;53.242;10.408;2023-04-24T06:44:18;1.87;;;1.30;;
6999;SDS011;3540;53.242;10.408;2023-04-24T06:46:44;1.50;;;1.20;;
6999;SDS011;3540;53.242;10.408;2023-04-24T06:49:09;2.50;;;1.20;;
6999;SDS011;3540;53.242;10.408;2023-04-24T06:51:35;1.73;;;1.17;;
6999;SDS011;3540;53.242;10.408;2023-04-24T06:54:01;1.40;;;1.10;;
6999;SDS011;3540;53.242;10.408;2023-04-24T06:56:27;2.50;;;1.20;;
6999;SDS011;3540;53.242;10.408;2023-04-24T06:58:54;4.90;;;1.60;;
6999;SDS011;3540;53.242;10.408;2023-04-24T07:01:19;2.77;;;1.30;;
6999;SDS011;3540;53.242;10.408;2023-04-24T07:03:45;1.23;;;1.07;;
6999;SDS011;3540;53.242;10.408;2023-04-24T07:06:11;2.60;;;1.47;;
6999;SDS011;3540;53.242;10.408;2023-04-24T07:08:37;1.47;;;1.20;;
6999;SDS011;3540;53.242;10.408;2023-04-24T07:11:03;1.20;;;1.10;;
6999;SDS011;3540;53.242;10.408;2023-04-24T07:13:29;2.80;;;1.30;;
6999;SDS011;3540;53.242;10.408;2023-04-24T07:15:54;1.63;;;1.20;;
6999;SDS011;3540;53.242;10.408;2023-04-24T07:18:21;2.13;;;1.20;;
6999;SDS011;3540;53.242;10.408;2023-04-24T07:20:47;1.63;;;1.13;;
6999;SDS011;3540;53.242;10.408;2023-04-24T07:23:15;1.43;;;1.13;;
6999;SDS011;3540;53.242;10.408;2023-04-24T07:25:41;1.30;;;1.20;;
6999;SDS011;3540;53.242;10.408;2023-04-24T07:28:06;1.67;;;1.20;;
6999;SDS011;3540;53.242;10.408;2023-04-24T07:30:32;1.30;;;1.20;;
6999;SDS011;3540;53.242;10.408;2023-04-24T07:32:58;1.40;;;1.20;;
6999;SDS011;3540;53.242;10.408;2023-04-24T07:35:24;2.37;;;1.10;;
6999;SDS011;3540;53.242;10.408;2023-04-24T07:37:51;2.60;;;1.10;;
6999;SDS011;3540;53.242;10.408;2023-04-24T07:40:20;1.13;;;1.03;;
6999;SDS011;3540;53.242;10.408;2023-04-24T07:42:46;1.70;;;1.07;;
6999;SDS011;3540;53.242;10.408;2023-04-24T07:45:13;1.00;;;1.00;;
6999;SDS011;3540;53.242;10.408;2023-04-24T07:47:41;1.37;;;1.27;;
6999;SDS011;3540;53.242;10.408;2023-04-24T07:50:09;3.13;;;1.20;;
6999;SDS011;3540;53.242;10.408;2023-04-24T07:52:35;1.60;;;1.20;;
6999;SDS011;3540;53.242;10.408;2023-04-24T07:55:01;1.17;;;1.10;;
6999;SDS011;3540;53.242;10.408;2023-04-24T07:57:27;1.83;;;1.13;;
6999;SDS011;3540;53.242;10.408;2023-04-24T07:59:53;1.30;;;1.20;;
6999;SDS011;3540;53.242;10.408;2023-04-24T08:02:18;1.40;;;1.20;;
6999;SDS011;3540;53.242;10.408;2023-04-24T08:04:44;1.57;;;1.40;;
6999;SDS011;3540;53.242;10.408;2023-04-24T08:07:10;2.87;;;1.40;;
6999;SDS011;3540;53.242;10.408;2023-04-24T08:09:37;2.50;;;1.30;;
6999;SDS011;3540;53.242;10.408;2023-04-24T08:12:03;2.23;;;1.30;;
6999;SDS011;3540;53.242;10.408;2023-04-24T08:14:29;2.57;;;1.43;;
6999;SDS011;3540;53.242;10.408;2023-04-24T08:16:55;1.57;;;1.37;;
6999;SDS011;3540;53.242;10.408;2023-04-24T08:19:25;1.90;;;1.40;;
6999;SDS011;3540;53.242;10.408;2023-04-24T08:21:51;1.50;;;1.40;;
6999;SDS011;3540;53.242;10.408;2023-04-24T08:24:16;2.50;;;1.53;;
6999;SDS011;3540;53.242;10.408;2023-04-24T08:26:42;1.70;;;1.50;;
6999;SDS011;3540;53.242;10.408;2023-04-24T08:29:08;1.80;;;1.60;;
6999;SDS011;3540;53.242;10.408;2023-04-24T08:31:33;1.50;;;1.40;;
6999;SDS011;3540;53.242;10.408;2023-04-24T08:33:59;1.80;;;1.60;;
6999;SDS011;3540;53.242;10.408;2023-04-24T08:36:25;2.20;;;1.70;;
6999;SDS011;3540;53.242;10.408;2023-04-24T08:38:52;1.80;;;1.57;;
6999;SDS011;3540;53.242;10.408;2023-04-24T08:41:18;1.87;;;1.30;;
6999;SDS011;3540;53.242;10.408;2023-04-24T08:43:45;3.63;;;1.63;;
6999;SDS011;3540;53.242;10.408;2023-04-24T08:46:12;1.47;;;1.33;;
6999;SDS011;3540;53.242;10.408;2023-04-24T08:48:38;2.53;;;1.70;;
6999;SDS011;3540;53.242;10.408;2023-04-24T08:51:07;3.63;;;1.80;;
6999;SDS011;3540;53.242;10.408;2023-04-24T08:53:33;2.43;;;1.87;;
6999;SDS011;3540;53.242;10.408;2023-04-24T08:56:00;3.17;;;1.97;;
6999;SDS011;3540;53.242;10.408;2023-04-24T08:58:27;2.03;;;1.50;;
6999;SDS011;3540;53.242;10.408;2023-04-24T09:00:56;1.97;;;1.77;;
6999;SDS011;3540;53.242;10.408;2023-04-24T09:03:23;1.90;;;1.80;;
6999;SDS011;3540;53.242;10.408;2023-04-24T09:05:49;2.50;;;2.30;;
6999;SDS011;3540;53.242;10.408;2023-04-24T09:08:18;3.10;;;2.27;;
6999;SDS011;3540;53.242;10.408;2023-04-24T09:10:46;3.77;;;2.73;;
6999;SDS011;3540;53.242;10.408;2023-04-24T09:13:11;3.27;;;2.67;;
6999;SDS011;3540;53.242;10.408;2023-04-24T09:15:38;3.10;;;2.80;;
6999;SDS011;3540;53.242;10.408;2023-04-24T09:18:05;4.17;;;3.00;;
6999;SDS011;3540;53.242;10.408;2023-04-24T09:20:32;6.23;;;3.07;;
6999;SDS011;3540;53.242;10.408;2023-04-24T09:22:58;4.13;;;3.73;;
6999;SDS011;3540;53.242;10.408;2023-04-24T09:25:33;4.43;;;3.80;;
6999;SDS011;3540;53.242;10.408;2023-04-24T09:28:04;7.30;;;3.73;;
6999;SDS011;3540;53.242;10.408;2023-04-24T09:30:31;4.33;;;3.80;;
6999;SDS011;3540;53.242;10.408;2023-04-24T09:33:10;4.53;;;3.77;;
6999;SDS011;3540;53.242;10.408;2023-04-24T09:35:41;6.17;;;4.27;;
6999;SDS011;3540;53.242;10.408;2023-04-24T09:38:08;5.17;;;3.83;;
6999;SDS011;3540;53.242;10.408;2023-04-24T09:40:34;5.13;;;3.23;;
6999;SDS011;3540;53.242;10.408;2023-04-24T09:43:00;4.37;;;3.50;;
6999;SDS011;3540;53.242;10.408;2023-04-24T09:45:28;4.20;;;3.70;;
6999;SDS011;3540;53.242;10.408;2023-04-24T09:48:00;8.00;;;3.40;;
6999;SDS011;3540;53.242;10.408;2023-04-24T09:50:26;3.37;;;3.00;;
6999;SDS011;3540;53.242;10.408;2023-04-24T09:52:58;4.13;;;3.33;;
6999;SDS011;3540;53.242;10.408;2023-04-24T09:55:26;4.97;;;3.40;;
6999;SDS011;3540;53.242;10.408;2023-04-24T10:00:26;10.53;;;3.83;;
6999;SDS011;3540;53.242;10.408;2023-04-24T10:02:58;5.87;;;4.00;;
6999;SDS011;3540;53.242;10.408;2023-04-24T10:08:05;8.67;;;4.10;;
6999;SDS011;3540;53.242;10.408;2023-04-24T10:10:33;4.23;;;3.50;;
6999;SDS011;3540;53.242;10.408;2023-04-24T10:13:00;6.13;;;4.27;;
6999;SDS011;3540;53.242;10.408;2023-04-24T10:15:26;6.33;;;4.20;;
6999;SDS011;3540;53.242;10.408;2023-04-24T10:17:52;5.67;;;3.90;;
6999;SDS011;3540;53.242;10.408;2023-04-24T10:20:22;6.03;;;4.23;;
6999;SDS011;3540;53.242;10.408;2023-04-24T10:22:49;5.27;;;4.03;;
6999;SDS011;3540;53.242;10.408;2023-04-24T10:25:22;6.83;;;3.93;;
6999;SDS011;3540;53.242;10.408;2023-04-24T10:27:50;5.97;;;4.10;;
6999;SDS011;3540;53.242;10.408;2023-04-24T10:30:17;6.70;;;4.50;;
6999;SDS011;3540;53.242;10.408;2023-04-24T10:32:44;8.13;;;4.27;;
6999;SDS011;3540;53.242;10.408;2023-04-24T10:35:11;5.43;;;4.20;;
6999;SDS011;3540;53.242;10.408;2023-04-24T10:37:39;5.57;;;4.13;;
6999;SDS011;3540;53.242;10.408;2023-04-24T10:40:16;5.27;;;4.37;;
6999;SDS011;3540;53.242;10.408;2023-04-24T10:42:46;6.30;;;4.10;;
6999;SDS011;3540;53.242;10.408;2023-04-24T10:45:19;7.97;;;4.67;;
6999;SDS011;3540;53.242;10.408;2023-04-24T10:47:53;6.23;;;4.40;;
6999;SDS011;3540;53.242;10.408;2023-04-24T10:50:23;8.10;;;4.40;;
6999;SDS011;3540;53.242;10.408;2023-04-24T10:52:51;5.63;;;4.20;;
6999;SDS011;3540;53.242;10.408;2023-04-24T10:58:04;5.97;;;4.10;;
6999;SDS011;3540;53.242;10.408;2023-04-24T11:00:30;4.67;;;4.03;;
6999;SDS011;3540;53.242;10.408;2023-04-24T11:02:56;9.77;;;4.20;;
6999;SDS011;3540;53.242;10.408;2023-04-24T11:05:22;5.90;;;4.30;;
6999;SDS011;3540;53.242;10.408;2023-04-24T11:08:16;4.83;;;3.97;;
6999;SDS011;3540;53.242;10.408;2023-04-24T11:21:46;4.67;;;3.50;;
6999;SDS011;3540;53.242;10.408;2023-04-24T11:34:51;3.20;;;2.40;;
6999;SDS011;3540;53.242;10.408;2023-04-24T11:37:19;2.50;;;2.23;;
6999;SDS011;3540;53.242;10.408;2023-04-24T11:39:44;3.70;;;2.80;;
6999;SDS011;3540;53.242;10.408;2023-04-24T11:42:12;10.43;;;2.40;;
6999;SDS011;3540;53.242;10.408;2023-04-24T11:44:41;3.57;;;2.23;;
6999;SDS011;3540;53.242;10.408;2023-04-24T11:47:08;4.10;;;2.50;;
6999;SDS011;3540;53.242;10.408;2023-04-24T11:49:36;4.90;;;2.37;;
6999;SDS011;3540;53.242;10.408;2023-04-24T11:52:02;3.73;;;2.30;;
6999;SDS011;3540;53.242;10.408;2023-04-24T11:54:28;2.93;;;2.60;;
6999;SDS011;3540;53.242;10.408;2023-04-24T11:56:53;3.70;;;3.00;;
6999;SDS011;3540;53.242;10.408;2023-04-24T11:59:21;3.73;;;3.13;;
6999;SDS011;3540;53.242;10.408;2023-04-24T12:01:47;3.10;;;2.33;;
6999;SDS011;3540;53.242;10.408;2023-04-24T12:04:14;3.23;;;2.77;;
6999;SDS011;3540;53.242;10.408;2023-04-24T12:06:59;4.67;;;2.50;;
6999;SDS011;3540;53.242;10.408;2023-04-24T12:09:26;3.77;;;2.40;;
6999;SDS011;3540;53.242;10.408;2023-04-24T12:11:55;3.17;;;2.60;;
6999;SDS011;3540;53.242;10.408;2023-04-24T12:14:24;2.70;;;2.37;;
6999;SDS011;3540;53.242;10.408;2023-04-24T12:16:50;2.53;;;2.30;;
6999;SDS011;3540;53.242;10.408;2023-04-24T12:19:22;2.93;;;2.53;;
6999;SDS011;3540;53.242;10.408;2023-04-24T12:21:59;2.53;;;2.33;;
6999;SDS011;3540;53.242;10.408;2023-04-24T12:24:30;4.93;;;2.60;;
6999;SDS011;3540;53.242;10.408;2023-04-24T12:26:56;4.57;;;2.80;;
6999;SDS011;3540;53.242;10.408;2023-04-24T12:29:23;4.73;;;2.80;;
6999;SDS011;3540;53.242;10.408;2023-04-24T12:31:50;3.10;;;2.70;;
6999;SDS011;3540;53.242;10.408;2023-04-24T12:34:20;3.00;;;2.70;;
6999;SDS011;3540;53.242;10.408;2023-04-24T12:36:47;4.57;;;2.93;;
6999;SDS011;3540;53.242;10.408;2023-04-24T12:39:16;4.40;;;2.33;;
6999;SDS011;3540;53.242;10.408;2023-04-24T12:41:50;5.77;;;2.40;;
6999;SDS011;3540;53.242;10.408;2023-04-24T12:44:31;4.37;;;2.50;;
6999;SDS011;3540;53.242;10.408;2023-04-24T12:47:01;2.37;;;2.07;;
6999;SDS011;3540;53.242;10.408;2023-04-24T12:49:29;2.50;;;2.30;;
6999;SDS011;3540;53.242;10.408;2023-04-24T12:51:55;3.93;;;2.07;;
6999;SDS011;3540;53.242;10.408;2023-04-24T12:54:21;3.80;;;2.23;;
6999;SDS011;3540;53.242;10.408;2023-04-24T12:56:47;2.17;;;1.90;;
6999;SDS011;3540;53.242;10.408;2023-04-24T12:59:13;2.13;;;2.00;;
6999;SDS011;3540;53.242;10.408;2023-04-24T13:01:39;2.57;;;2.10;;
6999;SDS011;3540;53.242;10.408;2023-04-24T13:04:05;2.77;;;2.10;;
6999;SDS011;3540;53.242;10.408;2023-04-24T13:06:31;2.93;;;2.17;;
6999;SDS011;3540;53.242;10.408;2023-04-24T13:08:57;2.23;;;2.03;;
6999;SDS011;3540;53.242;10.408;2023-04-24T13:11:23;2.20;;;1.93;;
6999;SDS011;3540;53.242;10.408;2023-04-24T13:13:49;1.83;;;1.63;;
6999;SDS011;3540;53.242;10.408;2023-04-24T13:16:15;1.80;;;1.70;;
6999;SDS011;3540;53.242;10.408;2023-04-24T13:18:41;2.87;;;1.70;;
6999;SDS011;3540;53.242;10.408;2023-04-24T13:21:06;1.80;;;1.70;;
6999;SDS011;3540;53.242;10.408;2023-04-24T13:23:32;1.83;;;1.60;;
6999;SDS011;3540;53.242;10.408;2023-04-24T13:25:58;3.70;;;1.90;;
6999;SDS011;3540;53.242;10.408;2023-04-24T13:28:24;2.70;;;2.33;;
6999;SDS011;3540;53.242;10.408;2023-04-24T13:30:50;1.70;;;1.60;;
6999;SDS011;3540;53.242;10.408;2023-04-24T13:33:16;1.60;;;1.50;;
6999;SDS011;3540;53.242;10.408;2023-04-24T13:35:42;1.77;;;1.63;;
6999;SDS011;3540;53.242;10.408;2023-04-24T13:38:07;2.37;;;1.60;;
6999;SDS011;3540;53.242;10.408;2023-04-24T13:40:33;2.27;;;1.60;;
6999;SDS011;3540;53.242;10.408;2023-04-24T13:42:59;4.13;;;1.60;;
6999;SDS011;3540;53.242;10.408;2023-04-24T13:45:25;2.43;;;1.97;;
6999;SDS011;3540;53.242;10.408;2023-04-24T13:47:51;2.90;;;1.73;;
6999;SDS011;3540;53.242;10.408;2023-04-24T13:50:18;1.60;;;1.50;;
6999;SDS011;3540;53.242;10.408;2023-04-24T13:52:45;1.80;;;1.43;;
6999;SDS011;3540;53.242;10.408;2023-04-24T13:55:10;4.23;;;1.80;;
6999;SDS011;3540;53.242;10.408;2023-04-24T13:57:36;2.00;;;1.77;;
6999;SDS011;3540;53.242;10.408;2023-04-24T14:00:02;2.33;;;1.67;;
6999;SDS011;3540;53.242;10.408;2023-04-24T14:02:29;2.00;;;1.80;;
6999;SDS011;3540;53.242;10.408;2023-04-24T14:04:55;2.13;;;1.57;;
6999;SDS011;3540;53.242;10.408;2023-04-24T14:07:20;1.90;;;1.80;;
6999;SDS011;3540;53.242;10.408;2023-04-24T14:09:46;1.60;;;1.50;;
6999;SDS011;3540;53.242;10.408;2023-04-24T14:12:12;1.70;;;1.60;;
6999;SDS011;3540;53.242;10.408;2023-04-24T14:14:38;2.43;;;1.70;;
6999;SDS011;3540;53.242;10.408;2023-04-24T14:17:04;1.70;;;1.60;;
6999;SDS011;3540;53.242;10.408;2023-04-24T14:19:30;2.33;;;2.13;;
6999;SDS011;3540;53.242;10.408;2023-04-24T14:21:55;1.93;;;1.73;;
6999;SDS011;3540;53.242;10.408;2023-04-24T14:24:23;1.90;;;1.80;;
6999;SDS011;3540;53.242;10.408;2023-04-24T14:26:48;1.80;;;1.70;;
6999;SDS011;3540;53.242;10.408;2023-04-24T14:29:14;4.20;;;2.17;;
6999;SDS011;3540;53.242;10.408;2023-04-24T14:31:41;2.17;;;1.70;;
6999;SDS011;3540;53.242;10.408;2023-04-24T14:34:07;1.80;;;1.70;;
6999;SDS011;3540;53.242;10.408;2023-04-24T14:36:33;1.93;;;1.50;;
6999;SDS011;3540;53.242;10.408;2023-04-24T14:38:59;1.97;;;1.50;;
6999;SDS011;3540;53.242;10.408;2023-04-24T14:41:24;1.90;;;1.70;;
6999;SDS011;3540;53.242;10.408;2023-04-24T14:43:50;2.53;;;1.70;;
6999;SDS011;3540;53.242;10.408;2023-04-24T14:46:16;2.87;;;1.80;;
6999;SDS011;3540;53.242;10.408;2023-04-24T14:48:41;3.27;;;1.90;;
6999;SDS011;3540;53.242;10.408;2023-04-24T14:51:07;2.13;;;1.33;;
6999;SDS011;3540;53.242;10.408;2023-04-24T14:53:32;1.10;;;1.10;;
6999;SDS011;3540;53.242;10.408;2023-04-24T14:55:58;2.43;;;1.00;;
6999;SDS011;3540;53.242;10.408;2023-04-24T14:58:24;0.80;;;0.80;;
6999;SDS011;3540;53.242;10.408;2023-04-24T15:00:50;0.80;;;0.80;;
6999;SDS011;3540;53.242;10.408;2023-04-24T15:03:17;1.70;;;0.70;;
6999;SDS011;3540;53.242;10.408;2023-04-24T15:05:43;1.73;;;1.00;;
6999;SDS011;3540;53.242;10.408;2023-04-24T15:08:09;1.00;;;1.00;;
6999;SDS011;3540;53.242;10.408;2023-04-24T15:10:35;0.80;;;0.80;;
6999;SDS011;3540;53.242;10.408;2023-04-24T15:13:01;2.37;;;1.00;;
6999;SDS011;3540;53.242;10.408;2023-04-24T15:15:26;1.00;;;1.00;;
6999;SDS011;3540;53.242;10.408;2023-04-24T15:17:52;1.27;;;0.90;;
6999;SDS011;3540;53.242;10.408;2023-04-24T15:20:17;1.07;;;0.90;;
6999;SDS011;3540;53.242;10.408;2023-04-24T15:22:43;1.07;;;0.90;;
6999;SDS011;3540;53.242;10.408;2023-04-24T15:25:09;2.53;;;1.37;;